Time;durP1;ratioP1;P1;durP2;ratioP2;P2;SDS_P1;SDS_P2;PMS_P1;PMS_P2;Temp;Humidity;BMP_temperature;BMP_pressure;BME280_temperature;BME280_humidity;BME280_pressure;Samples;Min_cycle;Max_cycle;Signal;HPM_P1;HPM_P2
2021/06/25 00:01:22;;;;;;;15.15;2.20;;;;;;;;;;4997668;28;20030;-36
2021/06/25 00:03:49;;;;;;;5.72;1.98;;;;;;;;;;5006348;28;20497;-37
2021/06/25 00:06:16;;;;;;;12.05;2.33;;;;;;;;;;4997692;28;20573;-35
2021/06/25 00:08:43;;;;;;;16.00;2.20;;;;;;;;;;5000584;28;20428;-36
2021/06/25 00:11:11;;;;;;;14.40;2.20;;;;;;;;;;4996395;28;20018;-37
2021/06/25 00:13:38;;;;;;;12.65;2.45;;;;;;;;;;4996130;28;20045;-39
2021/06/25 00:16:05;;;;;;;11.10;2.55;;;;;;;;;;4996155;28;20026;-39
2021/06/25 00:18:32;;;;;;;14.85;3.03;;;;;;;;;;5005598;28;20093;-39
2021/06/25 00:20:59;;;;;;;13.85;2.70;;;;;;;;;;4994197;28;20026;-39
2021/06/25 00:23:27;;;;;;;9.05;2.75;;;;;;;;;;5011507;28;20028;-40
2021/06/25 00:25:54;;;;;;;20.52;2.60;;;;;;;;;;4974479;28;20517;-39
2021/06/25 00:28:21;;;;;;;12.90;2.53;;;;;;;;;;5009084;28;20445;-39
2021/06/25 00:30:48;;;;;;;20.25;3.08;;;;;;;;;;5009170;28;20041;-38
2021/06/25 00:33:15;;;;;;;14.80;2.70;;;;;;;;;;5009760;28;20018;-43
2021/06/25 00:35:42;;;;;;;20.58;2.92;;;;;;;;;;5010621;28;20497;-37
2021/06/25 00:38:09;;;;;;;18.95;2.45;;;;;;;;;;5007827;28;20105;-41
2021/06/25 00:40:36;;;;;;;10.15;2.40;;;;;;;;;;5009826;28;21450;-38
2021/06/25 00:43:04;;;;;;;14.38;2.88;;;;;;;;;;5004079;28;20513;-41
2021/06/25 00:45:31;;;;;;;8.07;2.47;;;;;;;;;;5007693;28;20025;-44
2021/06/25 00:47:59;;;;;;;14.25;2.67;;;;;;;;;;5011105;28;20024;-43
2021/06/25 00:50:27;;;;;;;12.82;2.80;;;;;;;;;;5011419;28;20104;-44
2021/06/25 00:52:55;;;;;;;16.90;3.25;;;;;;;;;;5007860;28;20022;-44
2021/06/25 00:55:23;;;;;;;16.77;3.47;;;;;;;;;;5005382;28;20041;-42
2021/06/25 00:57:50;;;;;;;19.25;3.22;;;;;;;;;;5010018;28;20033;-44
2021/06/25 01:00:18;;;;;;;15.70;4.07;;;;;;;;;;5008261;28;20582;-43
2021/06/25 01:02:45;;;;;;;20.50;3.90;;;;;;;;;;5010845;28;20025;-43
2021/06/25 01:05:14;;;;;;;17.17;3.63;;;;;;;;;;5008720;28;20066;-45
2021/06/25 01:07:41;;;;;;;11.65;4.10;;;;;;;;;;4987297;28;20034;-39
2021/06/25 01:10:09;;;;;;;20.50;4.07;;;;;;;;;;5007947;28;20044;-44
2021/06/25 01:12:37;;;;;;;18.15;3.53;;;;;;;;;;5006542;28;21379;-38
2021/06/25 01:15:07;;;;;;;21.00;4.65;;;;;;;;;;5005424;28;20049;-39
2021/06/25 01:17:38;;;;;;;21.08;4.60;;;;;;;;;;5005676;28;20101;-37
2021/06/25 01:20:08;;;;;;;15.05;3.70;;;;;;;;;;5009458;28;20025;-35
2021/06/25 01:22:40;;;;;;;13.15;3.42;;;;;;;;;;5010034;28;20510;-39
2021/06/25 01:25:08;;;;;;;15.38;3.65;;;;;;;;;;5010068;28;20026;-44
2021/06/25 01:27:36;;;;;;;12.10;3.20;;;;;;;;;;5005811;28;20118;-43
2021/06/25 01:30:04;;;;;;;12.07;2.88;;;;;;;;;;4974455;28;20030;-42
2021/06/25 01:32:31;;;;;;;10.90;2.95;;;;;;;;;;5008479;28;20022;-38
2021/06/25 01:35:01;;;;;;;8.20;2.80;;;;;;;;;;5008306;28;20011;-39
2021/06/25 01:37:29;;;;;;;9.25;2.78;;;;;;;;;;5010299;28;20044;-40
2021/06/25 01:39:56;;;;;;;12.82;3.25;;;;;;;;;;5004469;28;20027;-44
2021/06/25 01:42:23;;;;;;;18.90;3.55;;;;;;;;;;4992436;28;20045;-39
2021/06/25 01:44:52;;;;;;;11.07;2.80;;;;;;;;;;5007340;28;20018;-36
2021/06/25 01:47:19;;;;;;;17.55;3.58;;;;;;;;;;5007669;28;20389;-40
2021/06/25 01:49:46;;;;;;;7.90;2.83;;;;;;;;;;5008095;28;20089;-37
2021/06/25 01:52:20;;;;;;;11.23;2.85;;;;;;;;;;5000587;28;20027;-40
2021/06/25 01:54:48;;;;;;;13.48;3.28;;;;;;;;;;4992296;28;20022;-36
2021/06/25 01:57:15;;;;;;;11.40;2.80;;;;;;;;;;5004673;28;20030;-38
2021/06/25 01:59:42;;;;;;;10.95;3.00;;;;;;;;;;5006338;28;20023;-40
2021/06/25 02:02:09;;;;;;;8.20;2.78;;;;;;;;;;5007829;28;20046;-41
2021/06/25 02:04:37;;;;;;;7.43;2.53;;;;;;;;;;5006174;28;20392;-37
2021/06/25 02:07:04;;;;;;;13.10;3.53;;;;;;;;;;5008762;28;20025;-36
2021/06/25 02:09:31;;;;;;;6.50;2.45;;;;;;;;;;5009111;28;20567;-36
2021/06/25 02:11:58;;;;;;;7.05;2.70;;;;;;;;;;5007807;28;20034;-36
2021/06/25 02:14:26;;;;;;;10.65;2.50;;;;;;;;;;5007822;28;20069;-37
2021/06/25 02:16:53;;;;;;;8.88;2.97;;;;;;;;;;5003980;28;20026;-37
2021/06/25 02:19:20;;;;;;;9.93;2.92;;;;;;;;;;5007893;28;20061;-44
2021/06/25 02:21:47;;;;;;;8.30;2.15;;;;;;;;;;5006931;28;20373;-38
2021/06/25 02:24:15;;;;;;;8.55;2.33;;;;;;;;;;5009247;28;20041;-44
2021/06/25 02:26:42;;;;;;;8.95;2.30;;;;;;;;;;5008461;28;20030;-39
2021/06/25 02:29:09;;;;;;;6.43;1.92;;;;;;;;;;5007580;28;20108;-44
2021/06/25 02:31:36;;;;;;;7.82;2.47;;;;;;;;;;5005760;28;20058;-37
2021/06/25 02:34:03;;;;;;;8.50;2.28;;;;;;;;;;5007064;28;20022;-41
2021/06/25 02:36:30;;;;;;;5.15;2.10;;;;;;;;;;5006189;28;20049;-45
2021/06/25 02:38:57;;;;;;;6.13;1.98;;;;;;;;;;5003574;28;20466;-41
2021/06/25 02:41:24;;;;;;;8.57;2.35;;;;;;;;;;5005272;28;20691;-40
2021/06/25 02:43:51;;;;;;;8.88;2.45;;;;;;;;;;5007359;28;20018;-43
2021/06/25 02:46:19;;;;;;;3.65;1.80;;;;;;;;;;5007074;28;20153;-44
2021/06/25 02:48:46;;;;;;;7.95;2.33;;;;;;;;;;5008028;28;20022;-39
2021/06/25 02:51:13;;;;;;;7.07;1.80;;;;;;;;;;5005611;28;20030;-37
2021/06/25 02:53:40;;;;;;;7.80;1.98;;;;;;;;;;5006697;28;20385;-41
2021/06/25 02:56:07;;;;;;;5.50;1.70;;;;;;;;;;5007708;28;20044;-43
2021/06/25 02:58:34;;;;;;;13.65;2.00;;;;;;;;;;4991105;28;20033;-43
2021/06/25 03:01:01;;;;;;;5.38;2.05;;;;;;;;;;5007480;28;20033;-42
2021/06/25 03:03:40;;;;;;;7.78;1.83;;;;;;;;;;5005982;28;20029;-39
2021/06/25 03:06:07;;;;;;;10.32;2.35;;;;;;;;;;5005047;28;20073;-38
2021/06/25 03:08:36;;;;;;;6.30;1.60;;;;;;;;;;5011939;28;20044;-41
2021/06/25 03:11:03;;;;;;;6.47;1.98;;;;;;;;;;5012714;28;20017;-37
2021/06/25 03:13:31;;;;;;;5.90;1.73;;;;;;;;;;5007152;28;20385;-39
2021/06/25 03:16:02;;;;;;;4.75;1.80;;;;;;;;;;5008153;28;20041;-38
2021/06/25 03:18:29;;;;;;;7.10;1.90;;;;;;;;;;5013235;28;20283;-37
2021/06/25 03:20:56;;;;;;;6.22;2.13;;;;;;;;;;5011979;28;20060;-35
2021/06/25 03:23:23;;;;;;;6.72;1.90;;;;;;;;;;5013767;28;20485;-36
2021/06/25 03:25:50;;;;;;;8.23;1.67;;;;;;;;;;5013114;28;20647;-38
2021/06/25 03:28:17;;;;;;;5.63;1.30;;;;;;;;;;5013724;28;20057;-34
2021/06/25 03:30:44;;;;;;;4.38;2.15;;;;;;;;;;5013201;28;20504;-34
2021/06/25 03:33:11;;;;;;;6.75;1.50;;;;;;;;;;5013870;28;20057;-36
2021/06/25 03:35:38;;;;;;;5.22;1.80;;;;;;;;;;5013196;28;20053;-35
2021/06/25 03:38:06;;;;;;;5.03;1.67;;;;;;;;;;5013766;28;20479;-34
2021/06/25 03:40:34;;;;;;;3.97;1.40;;;;;;;;;;5013477;28;20029;-36
2021/06/25 03:43:01;;;;;;;7.30;1.55;;;;;;;;;;5013884;28;20424;-34
2021/06/25 03:45:28;;;;;;;3.80;1.60;;;;;;;;;;5013356;28;20404;-37
2021/06/25 03:47:55;;;;;;;5.72;1.30;;;;;;;;;;5013431;28;20045;-34
2021/06/25 03:50:22;;;;;;;8.00;1.48;;;;;;;;;;5013083;28;20021;-38
2021/06/25 03:52:50;;;;;;;5.47;1.65;;;;;;;;;;5013413;28;20014;-37
2021/06/25 03:55:17;;;;;;;5.85;1.55;;;;;;;;;;5013372;28;20045;-34
2021/06/25 03:57:44;;;;;;;4.88;1.60;;;;;;;;;;5013169;28;20026;-34
2021/06/25 04:00:13;;;;;;;6.30;1.40;;;;;;;;;;5013453;28;20077;-35
2021/06/25 04:02:40;;;;;;;8.45;1.65;;;;;;;;;;5012968;28;20416;-37
2021/06/25 04:05:09;;;;;;;3.58;1.17;;;;;;;;;;5013673;28;20014;-37
2021/06/25 04:07:37;;;;;;;5.78;1.50;;;;;;;;;;5012945;28;20025;-37
2021/06/25 04:10:05;;;;;;;3.25;1.42;;;;;;;;;;5013642;28;20022;-35
2021/06/25 04:12:33;;;;;;;3.33;1.20;;;;;;;;;;5013516;28;20018;-34
2021/06/25 04:15:00;;;;;;;6.07;1.85;;;;;;;;;;5013656;28;20050;-36
2021/06/25 04:17:27;;;;;;;4.47;1.52;;;;;;;;;;5012355;28;20034;-36
2021/06/25 04:19:54;;;;;;;2.65;1.40;;;;;;;;;;5013502;28;20018;-36
2021/06/25 04:22:21;;;;;;;5.85;1.42;;;;;;;;;;5012537;28;20067;-37
2021/06/25 04:24:49;;;;;;;5.15;1.30;;;;;;;;;;5013652;28;20099;-37
2021/06/25 04:27:16;;;;;;;4.60;1.40;;;;;;;;;;5012558;28;20129;-37
2021/06/25 04:29:44;;;;;;;4.60;1.55;;;;;;;;;;5013676;28;20018;-36
2021/06/25 04:32:12;;;;;;;3.30;1.33;;;;;;;;;;5013077;28;20497;-36
2021/06/25 04:34:40;;;;;;;2.63;1.23;;;;;;;;;;5012800;28;20485;-36
2021/06/25 04:37:07;;;;;;;2.67;1.13;;;;;;;;;;5013182;28;20034;-37
2021/06/25 04:39:34;;;;;;;4.45;1.40;;;;;;;;;;5013082;28;20026;-36
2021/06/25 04:42:01;;;;;;;3.05;1.20;;;;;;;;;;5013331;28;20014;-37
2021/06/25 04:44:28;;;;;;;3.85;1.48;;;;;;;;;;5013136;28;20022;-36
2021/06/25 04:46:55;;;;;;;3.83;1.17;;;;;;;;;;5013175;28;20030;-37
2021/06/25 04:49:22;;;;;;;4.60;1.38;;;;;;;;;;5012817;28;20772;-37
2021/06/25 04:51:49;;;;;;;3.70;1.05;;;;;;;;;;5013576;28;20025;-36
2021/06/25 04:54:16;;;;;;;6.60;1.30;;;;;;;;;;5013054;28;20022;-37
2021/06/25 04:56:43;;;;;;;4.68;1.15;;;;;;;;;;5021594;28;20044;-36
2021/06/25 04:59:10;;;;;;;5.97;1.52;;;;;;;;;;5032727;28;20029;-35
2021/06/25 05:01:37;;;;;;;4.72;1.17;;;;;;;;;;5015249;28;20484;-36
2021/06/25 05:04:04;;;;;;;3.60;1.25;;;;;;;;;;5012550;28;20026;-37
2021/06/25 05:06:31;;;;;;;5.40;1.33;;;;;;;;;;5013391;28;20639;-37
2021/06/25 05:08:58;;;;;;;2.47;1.00;;;;;;;;;;5012216;28;20512;-37
2021/06/25 05:11:25;;;;;;;2.85;1.08;;;;;;;;;;5012801;28;20026;-36
2021/06/25 05:13:53;;;;;;;3.00;1.20;;;;;;;;;;5012988;28;20030;-36
2021/06/25 05:16:20;;;;;;;1.83;0.98;;;;;;;;;;5012598;28;20116;-37
2021/06/25 05:18:47;;;;;;;2.78;1.00;;;;;;;;;;5012478;28;20018;-36
2021/06/25 05:21:14;;;;;;;2.67;0.85;;;;;;;;;;5012568;28;20074;-35
2021/06/25 05:23:41;;;;;;;3.55;1.10;;;;;;;;;;5012418;28;20104;-35
2021/06/25 05:26:08;;;;;;;2.25;0.90;;;;;;;;;;5011511;28;20391;-37
2021/06/25 05:28:36;;;;;;;2.17;1.05;;;;;;;;;;5012167;28;20490;-37
2021/06/25 05:31:03;;;;;;;3.83;1.20;;;;;;;;;;5011656;28;20505;-37
2021/06/25 05:33:30;;;;;;;2.67;1.00;;;;;;;;;;5012087;28;20041;-34
2021/06/25 05:35:57;;;;;;;1.33;0.75;;;;;;;;;;5011951;28;20065;-35
2021/06/25 05:38:24;;;;;;;1.83;0.80;;;;;;;;;;5012447;28;20022;-37
2021/06/25 05:40:51;;;;;;;3.70;0.90;;;;;;;;;;5012117;28;20377;-37
2021/06/25 05:43:18;;;;;;;2.38;1.00;;;;;;;;;;5012529;28;20067;-37
2021/06/25 05:45:45;;;;;;;3.65;1.40;;;;;;;;;;5011950;28;20032;-37
2021/06/25 05:48:12;;;;;;;2.47;0.90;;;;;;;;;;5012209;28;20064;-36
2021/06/25 05:50:40;;;;;;;2.10;0.80;;;;;;;;;;5012189;28;20014;-35
2021/06/25 05:53:07;;;;;;;2.05;0.95;;;;;;;;;;5012359;28;20030;-35
2021/06/25 05:55:35;;;;;;;2.38;1.10;;;;;;;;;;5012032;28;20097;-36
2021/06/25 05:58:02;;;;;;;2.97;0.93;;;;;;;;;;5011553;28;20596;-36
2021/06/25 06:00:29;;;;;;;3.25;1.10;;;;;;;;;;5012256;28;20022;-36
2021/06/25 06:02:56;;;;;;;1.38;0.70;;;;;;;;;;5011517;28;20503;-36
2021/06/25 06:05:23;;;;;;;4.65;0.90;;;;;;;;;;5012322;28;20026;-36
2021/06/25 06:07:50;;;;;;;1.65;0.70;;;;;;;;;;5011702;28;20044;-37
2021/06/25 06:10:17;;;;;;;1.83;0.85;;;;;;;;;;5012122;28;20025;-36
2021/06/25 06:12:47;;;;;;;4.07;0.80;;;;;;;;;;5011605;28;20061;-36
2021/06/25 06:15:18;;;;;;;2.15;0.98;;;;;;;;;;5012146;28;20078;-37
2021/06/25 06:17:49;;;;;;;2.05;0.90;;;;;;;;;;5011675;28;20037;-37
2021/06/25 06:20:22;;;;;;;2.78;0.88;;;;;;;;;;5011721;28;20108;-38
2021/06/25 06:31:18;;;;;;;1.38;0.77;;;;;;;;;;5012210;28;20041;-37
2021/06/25 06:33:49;;;;;;;2.42;0.90;;;;;;;;;;5011743;28;20017;-36
2021/06/25 06:36:28;;;;;;;1.80;0.68;;;;;;;;;;5011789;28;20088;-36
2021/06/25 06:38:56;;;;;;;2.15;0.85;;;;;;;;;;5011318;28;20029;-37
2021/06/25 06:41:24;;;;;;;3.30;0.73;;;;;;;;;;5014004;28;20033;-36
2021/06/25 06:43:51;;;;;;;1.83;0.70;;;;;;;;;;5015541;28;20030;-36
2021/06/25 06:46:18;;;;;;;2.22;0.88;;;;;;;;;;5016055;28;20055;-36
2021/06/25 06:48:47;;;;;;;1.67;0.80;;;;;;;;;;5015192;28;20022;-36
2021/06/25 06:51:14;;;;;;;2.17;0.68;;;;;;;;;;5015657;28;20057;-36
2021/06/25 06:53:44;;;;;;;3.05;0.90;;;;;;;;;;5015765;28;20018;-35
2021/06/25 06:56:12;;;;;;;1.33;0.70;;;;;;;;;;5015290;28;20057;-36
2021/06/25 06:58:40;;;;;;;1.83;0.75;;;;;;;;;;5015674;28;20436;-36
2021/06/25 07:01:08;;;;;;;1.58;0.80;;;;;;;;;;5015112;28;20029;-36
2021/06/25 07:03:35;;;;;;;2.75;0.80;;;;;;;;;;5015489;28;20101;-36
2021/06/25 07:06:03;;;;;;;3.50;0.93;;;;;;;;;;5014996;28;20021;-37
2021/06/25 07:08:29;;;;;;;1.10;0.52;;;;;;;;;;5015351;28;20389;-38
2021/06/25 07:11:15;;;;;;;1.50;0.70;;;;;;;;;;5014645;28;20026;-37
2021/06/25 07:13:42;;;;;;;2.90;0.75;;;;;;;;;;5015353;28;20101;-37
2021/06/25 07:16:12;;;;;;;1.27;0.55;;;;;;;;;;5014272;28;20038;-37
2021/06/25 07:18:39;;;;;;;1.05;0.60;;;;;;;;;;5015427;28;20585;-37
2021/06/25 07:21:06;;;;;;;1.17;0.70;;;;;;;;;;4996209;28;20025;-36
2021/06/25 07:23:33;;;;;;;1.00;0.60;;;;;;;;;;5015082;28;20367;-37
2021/06/25 07:26:00;;;;;;;1.65;0.60;;;;;;;;;;5014621;28;20030;-36
2021/06/25 07:28:27;;;;;;;1.23;0.50;;;;;;;;;;5014931;28;20050;-36
2021/06/25 07:30:55;;;;;;;1.95;0.60;;;;;;;;;;5014751;28;20022;-37
2021/06/25 07:33:22;;;;;;;1.70;0.63;;;;;;;;;;5014616;28;20026;-37
2021/06/25 07:35:49;;;;;;;0.98;0.50;;;;;;;;;;5014890;28;20029;-36
2021/06/25 07:38:16;;;;;;;4.78;0.90;;;;;;;;;;5014542;28;20033;-36
2021/06/25 07:40:43;;;;;;;0.70;0.50;;;;;;;;;;5014537;28;20097;-35
2021/06/25 07:43:10;;;;;;;1.42;0.70;;;;;;;;;;5014471;28;20017;-36
2021/06/25 07:45:37;;;;;;;0.45;0.40;;;;;;;;;;5014317;28;20058;-36
2021/06/25 07:48:05;;;;;;;1.10;0.60;;;;;;;;;;4996242;28;20032;-37
2021/06/25 07:50:32;;;;;;;1.80;0.50;;;;;;;;;;5014697;28;20029;-36
2021/06/25 07:52:59;;;;;;;0.77;0.52;;;;;;;;;;5013322;28;20408;-35
2021/06/25 07:55:26;;;;;;;0.68;0.47;;;;;;;;;;5014475;28;20048;-35
2021/06/25 07:57:53;;;;;;;2.38;0.60;;;;;;;;;;5014211;28;20030;-35
2021/06/25 08:00:20;;;;;;;1.58;0.63;;;;;;;;;;4996675;28;20037;-36
2021/06/25 08:02:47;;;;;;;2.35;0.63;;;;;;;;;;5014436;28;20568;-35
2021/06/25 08:05:14;;;;;;;3.05;0.50;;;;;;;;;;5014391;28;20033;-36
2021/06/25 08:07:42;;;;;;;0.95;0.60;;;;;;;;;;5014087;28;20018;-35
2021/06/25 08:10:10;;;;;;;1.42;0.70;;;;;;;;;;5013591;28;20069;-36
2021/06/25 08:12:37;;;;;;;1.85;0.73;;;;;;;;;;5014449;28;20379;-36
2021/06/25 08:15:04;;;;;;;1.52;0.60;;;;;;;;;;5013366;28;20384;-36
2021/06/25 08:17:31;;;;;;;3.20;0.60;;;;;;;;;;5014178;28;20489;-37
2021/06/25 08:19:58;;;;;;;0.95;0.60;;;;;;;;;;5013428;28;20469;-36
2021/06/25 08:22:25;;;;;;;0.75;0.50;;;;;;;;;;5013588;28;20029;-38
2021/06/25 08:24:53;;;;;;;1.25;0.68;;;;;;;;;;5013477;28;20520;-37
2021/06/25 08:27:20;;;;;;;1.02;0.50;;;;;;;;;;5013638;28;20053;-37
2021/06/25 08:29:48;;;;;;;1.85;0.77;;;;;;;;;;5012995;28;20034;-37
2021/06/25 08:32:15;;;;;;;2.45;0.57;;;;;;;;;;5013592;28;20029;-36
2021/06/25 08:34:42;;;;;;;0.95;0.50;;;;;;;;;;5013502;28;20049;-35
2021/06/25 08:37:09;;;;;;;0.88;0.60;;;;;;;;;;5013612;28;20065;-37
2021/06/25 08:39:38;;;;;;;0.93;0.50;;;;;;;;;;5013104;28;20022;-37
2021/06/25 08:42:06;;;;;;;1.13;0.50;;;;;;;;;;5012767;28;20034;-37
2021/06/25 08:44:34;;;;;;;1.33;0.60;;;;;;;;;;5013420;28;20033;-37
2021/06/25 08:47:01;;;;;;;1.25;0.82;;;;;;;;;;5013095;28;20487;-37
2021/06/25 08:49:29;;;;;;;1.15;0.60;;;;;;;;;;5013583;28;20084;-36
2021/06/25 08:51:56;;;;;;;1.73;0.50;;;;;;;;;;5013091;28;20022;-37
2021/06/25 08:54:23;;;;;;;1.23;0.73;;;;;;;;;;5013255;28;20080;-38
2021/06/25 08:56:50;;;;;;;1.33;0.60;;;;;;;;;;5012885;28;20030;-37
2021/06/25 08:59:20;;;;;;;2.35;0.80;;;;;;;;;;5013348;28;20030;-36
2021/06/25 09:01:48;;;;;;;1.27;0.60;;;;;;;;;;5012632;28;20034;-37
2021/06/25 09:04:31;;;;;;;1.63;0.80;;;;;;;;;;4995752;28;20025;-38
2021/06/25 09:06:58;;;;;;;1.40;0.65;;;;;;;;;;5012823;28;20080;-37
2021/06/25 09:09:37;;;;;;;1.80;0.55;;;;;;;;;;5013304;28;20036;-37
2021/06/25 09:12:08;;;;;;;0.90;0.60;;;;;;;;;;5011899;28;20104;-36
2021/06/25 09:14:53;;;;;;;1.23;0.75;;;;;;;;;;5012942;28;20029;-37
2021/06/25 09:17:20;;;;;;;2.75;0.80;;;;;;;;;;5012424;28;20465;-37
2021/06/25 09:19:47;;;;;;;1.33;0.70;;;;;;;;;;5013264;28;20049;-37
2021/06/25 09:22:14;;;;;;;1.23;0.60;;;;;;;;;;5012308;28;20033;-37
2021/06/25 09:24:42;;;;;;;2.38;0.73;;;;;;;;;;5012997;28;20077;-36
2021/06/25 09:27:09;;;;;;;1.95;0.93;;;;;;;;;;5012118;28;20520;-36
2021/06/25 09:29:41;;;;;;;1.17;0.68;;;;;;;;;;5012808;28;20030;-37
2021/06/25 09:32:12;;;;;;;1.43;0.80;;;;;;;;;;5012525;28;20080;-36
2021/06/25 09:34:43;;;;;;;1.52;0.63;;;;;;;;;;5012171;28;20042;-37
2021/06/25 09:37:14;;;;;;;0.93;0.60;;;;;;;;;;5012795;28;20038;-36
2021/06/25 09:39:42;;;;;;;1.15;0.70;;;;;;;;;;5012000;28;20093;-37
2021/06/25 09:42:19;;;;;;;1.42;0.70;;;;;;;;;;5012276;28;20033;-37
2021/06/25 09:45:01;;;;;;;1.38;0.73;;;;;;;;;;5012216;28;20046;-37
2021/06/25 09:47:33;;;;;;;0.75;0.60;;;;;;;;;;5012308;28;20049;-36
2021/06/25 09:50:12;;;;;;;1.98;0.80;;;;;;;;;;5012259;28;20022;-37
2021/06/25 09:52:50;;;;;;;1.25;0.63;;;;;;;;;;5012509;28;20025;-36
2021/06/25 09:55:18;;;;;;;1.45;0.55;;;;;;;;;;4994473;28;20032;-38
2021/06/25 10:03:59;;;;;;;1.00;0.50;;;;;;;;;;5012399;28;20137;-36
2021/06/25 10:06:27;;;;;;;1.67;0.70;;;;;;;;;;5011943;28;20060;-36
2021/06/25 10:08:55;;;;;;;1.25;0.70;;;;;;;;;;5012115;28;20026;-37
2021/06/25 10:11:23;;;;;;;1.00;0.50;;;;;;;;;;5011578;28;20117;-38
2021/06/25 10:13:51;;;;;;;2.03;0.70;;;;;;;;;;5011858;28;20032;-37
2021/06/25 10:16:18;;;;;;;1.27;0.55;;;;;;;;;;5011040;28;20036;-35
2021/06/25 10:18:46;;;;;;;1.17;0.57;;;;;;;;;;5011302;28;20049;-39
2021/06/25 10:21:14;;;;;;;1.27;0.68;;;;;;;;;;5011425;28;20397;-37
2021/06/25 10:23:46;;;;;;;1.92;0.70;;;;;;;;;;5011584;28;20096;-37
2021/06/25 10:26:14;;;;;;;1.70;0.70;;;;;;;;;;5011339;28;20048;-37
2021/06/25 10:28:42;;;;;;;2.92;0.60;;;;;;;;;;5011577;28;20052;-39
2021/06/25 10:31:10;;;;;;;1.30;0.70;;;;;;;;;;5011568;28;20018;-37
2021/06/25 10:33:38;;;;;;;0.82;0.50;;;;;;;;;;5002858;28;20493;-36
2021/06/25 10:36:06;;;;;;;1.08;0.60;;;;;;;;;;5007373;28;20046;-36
2021/06/25 10:38:35;;;;;;;1.58;0.75;;;;;;;;;;5007479;28;20026;-38
2021/06/25 10:41:03;;;;;;;1.95;0.60;;;;;;;;;;5003352;28;20079;-36
2021/06/25 10:43:52;;;;;;;1.80;0.60;;;;;;;;;;5000395;28;20026;-37
2021/06/25 10:46:34;;;;;;;1.83;0.70;;;;;;;;;;4995346;28;20436;-40
2021/06/25 10:49:04;;;;;;;2.25;0.80;;;;;;;;;;5003214;28;20073;-38
2021/06/25 10:51:33;;;;;;;0.88;0.73;;;;;;;;;;4991756;28;20038;-36
2021/06/25 10:54:12;;;;;;;1.17;0.68;;;;;;;;;;5008331;28;20482;-36
2021/06/25 10:56:40;;;;;;;4.03;0.75;;;;;;;;;;5002744;28;20499;-37
2021/06/25 10:59:25;;;;;;;1.85;0.52;;;;;;;;;;4998382;28;20057;-37
2021/06/25 11:01:59;;;;;;;3.10;0.70;;;;;;;;;;5000770;28;20425;-37
2021/06/25 11:04:34;;;;;;;3.72;0.50;;;;;;;;;;5000586;28;20048;-37
2021/06/25 11:07:08;;;;;;;2.25;0.80;;;;;;;;;;5010228;28;20079;-37
2021/06/25 11:09:55;;;;;;;1.27;0.60;;;;;;;;;;5009432;28;20104;-37
2021/06/25 11:12:33;;;;;;;1.02;0.60;;;;;;;;;;5009978;28;20112;-36
2021/06/25 11:15:06;;;;;;;19.15;1.13;;;;;;;;;;5009391;28;20030;-45
2021/06/25 11:17:53;;;;;;;5.88;1.13;;;;;;;;;;5009983;28;20064;-46
2021/06/25 11:20:29;;;;;;;6.43;0.93;;;;;;;;;;5010031;28;20029;-66
2021/06/25 11:23:02;;;;;;;361.63;35.85;;;;;;;;;;5010412;28;20022;-57
2021/06/25 11:25:56;;;;;;;201.88;20.77;;;;;;;;;;5009686;28;20030;-64
2021/06/25 11:28:26;;;;;;;70.10;7.10;;;;;;;;;;5008426;28;20468;-63
2021/06/25 11:30:53;;;;;;;63.67;7.25;;;;;;;;;;5012333;28;20030;-46
2021/06/25 11:33:39;;;;;;;54.78;5.93;;;;;;;;;;5013191;28;20358;-53
2021/06/25 11:36:15;;;;;;;16.20;3.45;;;;;;;;;;5012769;28;20073;-61
2021/06/25 11:38:54;;;;;;;9.30;2.63;;;;;;;;;;5013337;28;20030;-40
2021/06/25 11:41:44;;;;;;;12.65;2.58;;;;;;;;;;5012692;28;20034;-39
2021/06/25 11:44:12;;;;;;;12.38;2.30;;;;;;;;;;4997756;28;20113;-42
2021/06/25 11:46:40;;;;;;;15.18;3.00;;;;;;;;;;5006434;28;20025;-40
2021/06/25 11:49:07;;;;;;;10.57;2.63;;;;;;;;;;5012045;28;20477;-40
2021/06/25 11:51:42;;;;;;;14.95;2.00;;;;;;;;;;5008247;28;20033;-39
2021/06/25 11:54:10;;;;;;;13.88;2.38;;;;;;;;;;5006431;28;20512;-38
2021/06/25 11:56:38;;;;;;;12.77;1.95;;;;;;;;;;5004851;28;20073;-45
2021/06/25 11:59:08;;;;;;;11.50;1.90;;;;;;;;;;5008991;28;20034;-45
2021/06/25 12:01:48;;;;;;;19.55;3.45;;;;;;;;;;5004744;28;20512;-36
2021/06/25 12:04:15;;;;;;;26.83;3.85;;;;;;;;;;5008604;28;20045;-41
2021/06/25 12:06:50;;;;;;;23.67;4.80;;;;;;;;;;4989036;28;20069;-45
2021/06/25 12:09:17;;;;;;;31.35;3.97;;;;;;;;;;5008185;28;20034;-37
2021/06/25 12:11:46;;;;;;;24.92;4.30;;;;;;;;;;5008878;28;20037;-41
2021/06/25 12:14:14;;;;;;;44.95;5.65;;;;;;;;;;5008217;28;20014;-46
2021/06/25 12:16:42;;;;;;;28.27;4.47;;;;;;;;;;5009127;28;20490;-44
2021/06/25 12:19:14;;;;;;;22.40;4.43;;;;;;;;;;5007547;28;20022;-41
2021/06/25 12:21:41;;;;;;;16.27;4.00;;;;;;;;;;4997657;28;20481;-44
2021/06/25 12:24:11;;;;;;;24.38;3.90;;;;;;;;;;5004202;28;20118;-41
2021/06/25 12:26:38;;;;;;;22.55;3.70;;;;;;;;;;5010971;28;20030;-39
2021/06/25 12:29:05;;;;;;;26.27;3.53;;;;;;;;;;5007950;28;20101;-39
2021/06/25 12:31:34;;;;;;;16.52;3.50;;;;;;;;;;4993787;28;20069;-37
2021/06/25 12:34:11;;;;;;;14.05;3.75;;;;;;;;;;4994630;28;20022;-47
2021/06/25 12:36:40;;;;;;;11.95;3.33;;;;;;;;;;5005796;28;20120;-44
2021/06/25 12:39:08;;;;;;;12.35;3.20;;;;;;;;;;5006558;28;20025;-52
2021/06/25 12:41:44;;;;;;;9.98;2.83;;;;;;;;;;5009949;28;20084;-37
2021/06/25 12:44:11;;;;;;;8.48;2.88;;;;;;;;;;5003200;28;20029;-40
2021/06/25 12:46:39;;;;;;;10.85;2.75;;;;;;;;;;5002661;28;20553;-40
2021/06/25 12:49:08;;;;;;;12.70;2.58;;;;;;;;;;5007783;28;20022;-40
2021/06/25 12:51:39;;;;;;;11.18;2.15;;;;;;;;;;5003070;28;20046;-41
2021/06/25 12:54:07;;;;;;;16.13;2.10;;;;;;;;;;5008172;28;20029;-41
2021/06/25 12:56:44;;;;;;;11.10;2.25;;;;;;;;;;4999657;28;20053;-41
2021/06/25 12:59:19;;;;;;;8.02;2.30;;;;;;;;;;5000866;28;20370;-39
2021/06/25 13:01:51;;;;;;;15.98;2.38;;;;;;;;;;5001395;28;20034;-48
2021/06/25 13:04:25;;;;;;;10.68;2.33;;;;;;;;;;5007989;28;20425;-41
2021/06/25 13:07:02;;;;;;;10.20;2.45;;;;;;;;;;5010083;28;20108;-41
2021/06/25 13:09:30;;;;;;;10.30;2.72;;;;;;;;;;5008568;28;20022;-45
2021/06/25 13:12:18;;;;;;;8.98;2.35;;;;;;;;;;4997850;28;20026;-40
2021/06/25 13:14:55;;;;;;;4.88;1.60;;;;;;;;;;4997113;28;20054;-41
2021/06/25 13:17:23;;;;;;;15.50;2.42;;;;;;;;;;5008710;28;20037;-41
2021/06/25 13:19:53;;;;;;;8.40;1.95;;;;;;;;;;5007134;28;20485;-41
2021/06/25 13:22:39;;;;;;;14.38;2.63;;;;;;;;;;5006615;28;20401;-38
2021/06/25 13:25:17;;;;;;;10.68;2.28;;;;;;;;;;5004368;28;20034;-40
2021/06/25 13:27:50;;;;;;;10.30;2.08;;;;;;;;;;4979879;28;20038;-37
2021/06/25 13:30:18;;;;;;;10.52;1.90;;;;;;;;;;5000890;28;20473;-41
2021/06/25 13:32:55;;;;;;;6.10;1.73;;;;;;;;;;5004728;28;20038;-41
2021/06/25 13:35:23;;;;;;;5.47;1.60;;;;;;;;;;5004026;28;20113;-38
2021/06/25 13:37:52;;;;;;;5.50;2.03;;;;;;;;;;4999164;28;20489;-38
2021/06/25 13:40:44;;;;;;;11.48;2.78;;;;;;;;;;5001106;28;20037;-41
2021/06/25 13:43:31;;;;;;;9.52;1.85;;;;;;;;;;5003257;28;20026;-39
2021/06/25 13:46:13;;;;;;;7.93;1.92;;;;;;;;;;5007044;28;20076;-42
2021/06/25 13:48:41;;;;;;;10.93;2.00;;;;;;;;;;5006706;28;20040;-56
2021/06/25 13:51:10;;;;;;;5.72;1.65;;;;;;;;;;5001316;28;20030;-40
2021/06/25 13:53:47;;;;;;;10.55;1.70;;;;;;;;;;5001510;28;20051;-45
2021/06/25 13:56:19;;;;;;;8.80;1.65;;;;;;;;;;5003408;28;20018;-44
2021/06/25 13:59:06;;;;;;;6.53;2.20;;;;;;;;;;5007885;28;20109;-36
2021/06/25 14:01:34;;;;;;;4.97;1.35;;;;;;;;;;5006004;28;20055;-36
2021/06/25 14:04:09;;;;;;;6.03;1.65;;;;;;;;;;5003664;28;20014;-39
2021/06/25 14:06:36;;;;;;;10.00;1.98;;;;;;;;;;5010093;28;20412;-40
2021/06/25 14:09:05;;;;;;;8.27;1.98;;;;;;;;;;4999170;28;20023;-42
2021/06/25 14:11:37;;;;;;;11.05;2.08;;;;;;;;;;5004398;28;20561;-41
2021/06/25 14:14:10;;;;;;;17.00;2.78;;;;;;;;;;5002131;28;20022;-48
2021/06/25 14:16:38;;;;;;;22.83;3.28;;;;;;;;;;5007105;28;20037;-41
2021/06/25 14:19:07;;;;;;;22.05;2.90;;;;;;;;;;5005660;28;20109;-41
2021/06/25 14:21:39;;;;;;;20.63;2.80;;;;;;;;;;4989273;28;20112;-41
2021/06/25 14:24:07;;;;;;;23.90;3.67;;;;;;;;;;5002819;28;20068;-42
2021/06/25 14:26:35;;;;;;;28.58;3.92;;;;;;;;;;5005646;28;20029;-39
2021/06/25 14:29:02;;;;;;;28.70;4.10;;;;;;;;;;5007881;28;20042;-39
2021/06/25 14:31:30;;;;;;;25.95;3.30;;;;;;;;;;5008535;28;20061;-39
2021/06/25 14:33:57;;;;;;;23.27;3.92;;;;;;;;;;5010242;28;20022;-38
2021/06/25 14:36:24;;;;;;;18.05;2.55;;;;;;;;;;5007907;28;20034;-40
2021/06/25 14:38:55;;;;;;;17.80;3.08;;;;;;;;;;5010801;28;20497;-37
2021/06/25 14:41:22;;;;;;;15.25;2.67;;;;;;;;;;5024979;28;20034;-40
2021/06/25 14:43:49;;;;;;;17.73;2.75;;;;;;;;;;5031028;28;20025;-45
2021/06/25 14:46:16;;;;;;;16.58;2.63;;;;;;;;;;5001453;28;20022;-44
2021/06/25 14:48:45;;;;;;;13.73;2.33;;;;;;;;;;5006302;28;20485;-36
2021/06/25 14:51:13;;;;;;;11.35;2.20;;;;;;;;;;5010233;28;20026;-38
2021/06/25 14:53:40;;;;;;;8.57;1.90;;;;;;;;;;5006564;28;20042;-36
2021/06/25 14:56:07;;;;;;;9.63;2.13;;;;;;;;;;5008806;28;20077;-41
2021/06/25 14:58:34;;;;;;;14.55;1.58;;;;;;;;;;5006763;28;20093;-42
2021/06/25 15:01:01;;;;;;;17.65;1.90;;;;;;;;;;5000697;28;20030;-41
2021/06/25 15:03:28;;;;;;;11.70;1.73;;;;;;;;;;5011858;28;20045;-39
2021/06/25 15:05:56;;;;;;;11.48;1.52;;;;;;;;;;5010416;28;20049;-43